createdAt,value
2023-05-18T00:02:14.548Z,6.43
2023-05-18T00:04:41.627Z,10.88
2023-05-18T00:07:10.191Z,8.35
2023-05-18T00:09:37.423Z,8.90
2023-05-18T00:12:05.945Z,10.48
2023-05-18T00:14:33.010Z,6.28
2023-05-18T00:16:59.784Z,7.70
2023-05-18T00:19:26.753Z,10.23
2023-05-18T00:21:53.715Z,9.00
2023-05-18T00:24:22.169Z,7.18
2023-05-18T00:26:49.461Z,7.25
2023-05-18T00:29:16.467Z,6.97
2023-05-18T00:31:43.387Z,6.97
2023-05-18T00:34:10.926Z,9.70
2023-05-18T00:36:38.483Z,7.82
2023-05-18T00:39:06.293Z,11.00
2023-05-18T00:41:34.522Z,8.20
2023-05-18T00:44:01.602Z,6.70
2023-05-18T00:46:29.048Z,8.82
2023-05-18T00:48:56.995Z,10.18
2023-05-18T00:51:24.776Z,6.22
2023-05-18T00:53:53.770Z,8.63
2023-05-18T00:56:20.938Z,8.50
2023-05-18T00:58:52.064Z,9.55
2023-05-18T01:01:19.890Z,8.50
2023-05-18T01:03:46.767Z,8.80
2023-05-18T01:06:13.542Z,9.50
2023-05-18T01:08:40.489Z,10.40
2023-05-18T01:11:18.992Z,7.50
2023-05-18T01:13:54.288Z,11.48
2023-05-18T01:16:27.836Z,10.50
2023-05-18T01:19:00.267Z,8.35
2023-05-18T01:21:44.117Z,7.20
2023-05-18T01:24:24.231Z,7.15
2023-05-18T01:26:52.934Z,8.98
2023-05-18T01:29:21.543Z,7.00
2023-05-18T01:31:48.375Z,9.82
2023-05-18T01:34:15.204Z,9.25
2023-05-18T01:36:42.083Z,8.65
2023-05-18T01:39:10.032Z,7.75
2023-05-18T01:41:41.620Z,6.30
2023-05-18T01:44:14.940Z,6.88
2023-05-18T01:46:51.452Z,8.65
2023-05-18T01:49:26.839Z,6.70
2023-05-18T01:51:55.895Z,14.52
2023-05-18T01:54:24.613Z,10.80
2023-05-18T01:56:53.709Z,12.10
2023-05-18T01:59:22.970Z,9.88
2023-05-18T02:01:49.939Z,8.25
2023-05-18T02:04:16.999Z,10.95
2023-05-18T02:06:43.867Z,9.73
2023-05-18T02:09:10.812Z,12.25
2023-05-18T02:11:37.765Z,8.32
2023-05-18T02:14:04.586Z,13.55
2023-05-18T02:16:32.972Z,9.07
2023-05-18T02:19:00.063Z,8.88
2023-05-18T02:21:26.994Z,7.53
2023-05-18T02:23:53.890Z,7.78
2023-05-18T02:26:20.728Z,7.55
2023-05-18T02:28:47.611Z,7.88
2023-05-18T02:31:14.428Z,7.60
2023-05-18T02:33:42.690Z,7.90
2023-05-18T02:36:10.680Z,11.00
2023-05-18T02:38:37.989Z,9.30
2023-05-18T02:41:04.834Z,7.57
2023-05-18T02:43:31.725Z,11.18
2023-05-18T02:45:58.699Z,7.15
2023-05-18T02:48:25.568Z,11.02
2023-05-18T02:50:54.001Z,8.77
2023-05-18T02:53:20.936Z,10.38
2023-05-18T02:55:48.092Z,8.15
2023-05-18T02:58:15.295Z,8.05
2023-05-18T03:00:42.534Z,9.48
2023-05-18T03:03:09.751Z,8.10
2023-05-18T03:05:36.841Z,12.00
2023-05-18T03:08:05.404Z,7.95
2023-05-18T03:10:32.217Z,9.25
2023-05-18T03:12:59.068Z,9.55
2023-05-18T03:15:25.933Z,11.88
2023-05-18T03:17:52.777Z,8.73
2023-05-18T03:20:19.789Z,7.65
2023-05-18T03:22:46.620Z,12.38
2023-05-18T03:25:14.821Z,10.68
2023-05-18T03:27:41.746Z,11.13
2023-05-18T03:30:09.649Z,10.80
2023-05-18T03:32:36.562Z,12.20
2023-05-18T03:35:03.920Z,8.73
2023-05-18T03:37:30.779Z,10.68
2023-05-18T03:40:00.197Z,10.07
2023-05-18T03:42:28.483Z,8.82
2023-05-18T03:44:55.408Z,11.45
2023-05-18T03:47:22.220Z,12.02
2023-05-18T03:49:49.066Z,10.93
2023-05-18T03:52:16.023Z,11.45
2023-05-18T03:54:42.852Z,13.85
2023-05-18T03:57:09.634Z,11.52
2023-05-18T03:59:37.932Z,11.30
2023-05-18T04:02:05.745Z,13.98
2023-05-18T04:04:32.661Z,11.20
2023-05-18T04:06:59.678Z,13.02
2023-05-18T04:09:27.049Z,13.25
2023-05-18T04:11:54.015Z,12.63
2023-05-18T04:14:21.063Z,14.77
2023-05-18T04:16:49.474Z,12.20
2023-05-18T04:19:16.543Z,10.25
2023-05-18T04:21:43.449Z,11.60
2023-05-18T04:24:10.334Z,9.25
2023-05-18T04:26:37.187Z,9.60
2023-05-18T04:29:04.320Z,9.50
2023-05-18T04:31:31.162Z,9.50
2023-05-18T04:33:59.390Z,11.38
2023-05-18T04:36:26.333Z,11.02
2023-05-18T04:38:53.172Z,7.88
2023-05-18T04:41:19.990Z,14.27
2023-05-18T04:43:46.851Z,11.18
2023-05-18T04:46:13.788Z,8.45
2023-05-18T04:48:40.660Z,8.93
2023-05-18T04:51:08.954Z,10.38
2023-05-18T04:53:36.014Z,7.25
2023-05-18T04:56:02.878Z,7.53
2023-05-18T04:58:30.571Z,10.48
2023-05-18T05:00:57.595Z,7.78
2023-05-18T05:03:24.607Z,7.55
2023-05-18T05:05:51.518Z,9.93
2023-05-18T05:08:19.706Z,8.50
2023-05-18T05:10:46.522Z,9.00
2023-05-18T05:13:13.449Z,8.60
2023-05-18T05:15:40.296Z,8.52
2023-05-18T05:18:07.203Z,8.07
2023-05-18T05:20:34.261Z,6.75
2023-05-18T05:23:01.147Z,6.97
2023-05-18T05:25:29.656Z,8.50
2023-05-18T05:27:56.756Z,7.47
2023-05-18T05:30:23.678Z,7.90
2023-05-18T05:32:50.805Z,4.70
2023-05-18T05:35:17.716Z,8.77
2023-05-18T05:37:44.561Z,7.78
2023-05-18T05:40:11.973Z,5.70
2023-05-18T05:42:40.663Z,8.60
2023-05-18T05:45:08.696Z,8.50
2023-05-18T05:47:35.575Z,7.53
2023-05-18T05:50:02.566Z,6.28
2023-05-18T05:52:29.400Z,8.85
2023-05-18T05:54:56.625Z,8.88
2023-05-18T05:57:23.547Z,7.10
2023-05-18T05:59:51.822Z,8.27
2023-05-18T06:02:18.751Z,7.93
2023-05-18T06:04:45.644Z,5.60
2023-05-18T06:07:12.553Z,8.27
2023-05-18T06:09:39.337Z,8.32
2023-05-18T06:12:07.062Z,9.95
2023-05-18T06:14:34.030Z,9.07
2023-05-18T06:17:02.367Z,6.68
2023-05-18T06:19:29.522Z,7.35
2023-05-18T06:21:56.594Z,9.27
2023-05-18T06:24:23.608Z,11.35
2023-05-18T06:26:50.557Z,8.98
2023-05-18T06:29:17.685Z,6.75
2023-05-18T06:31:45.430Z,6.60
2023-05-18T06:34:14.452Z,7.07
2023-05-18T06:36:41.697Z,5.75
2023-05-18T06:39:09.240Z,8.88
2023-05-18T06:41:36.524Z,8.23
2023-05-18T06:44:03.678Z,8.77
2023-05-18T06:46:31.005Z,9.00
2023-05-18T06:48:58.213Z,7.00
2023-05-18T06:51:27.043Z,6.20
2023-05-18T06:53:53.966Z,7.97
2023-05-18T06:56:20.939Z,9.60
2023-05-18T06:58:48.356Z,7.25
2023-05-18T07:01:15.624Z,7.97
2023-05-18T07:03:43.050Z,6.70
2023-05-18T07:06:10.236Z,8.80
2023-05-18T07:08:38.900Z,11.07
2023-05-18T07:11:06.413Z,9.40
2023-05-18T07:13:33.611Z,6.88
2023-05-18T07:16:01.734Z,6.78
2023-05-18T07:18:28.922Z,7.15
2023-05-18T07:20:55.964Z,8.43
2023-05-18T07:23:23.005Z,8.52
2023-05-18T07:25:51.982Z,8.27
2023-05-18T07:28:19.069Z,9.10
2023-05-18T07:30:46.183Z,6.60
2023-05-18T07:33:13.191Z,6.80
2023-05-18T07:35:40.305Z,8.85
2023-05-18T07:38:07.231Z,6.78
2023-05-18T07:40:34.480Z,6.57
2023-05-18T07:43:03.255Z,7.68
2023-05-18T07:45:30.492Z,7.82
2023-05-18T07:47:57.933Z,9.40
2023-05-18T07:50:25.552Z,9.05
2023-05-18T07:52:52.660Z,5.82
2023-05-18T07:55:19.684Z,6.75
2023-05-18T07:57:46.755Z,6.32
2023-05-18T08:00:16.890Z,7.68
2023-05-18T08:02:44.442Z,7.50
2023-05-18T08:05:11.490Z,7.53
2023-05-18T08:07:39.574Z,7.47
2023-05-18T08:10:07.127Z,5.85
2023-05-18T08:12:34.273Z,9.68
2023-05-18T08:15:01.417Z,6.85
2023-05-18T08:17:30.100Z,10.68
2023-05-18T08:19:57.287Z,8.38
2023-05-18T08:22:24.391Z,7.07
2023-05-18T08:24:51.508Z,12.50
2023-05-18T08:27:18.756Z,6.50
2023-05-18T08:29:45.818Z,9.70
2023-05-18T08:32:13.221Z,7.93
2023-05-18T08:34:41.973Z,7.13
2023-05-18T08:37:09.054Z,9.07
2023-05-18T08:39:36.104Z,5.90
2023-05-18T08:42:07.563Z,7.35
2023-05-18T08:44:39.361Z,10.38
2023-05-18T08:47:10.275Z,11.40
2023-05-18T08:49:38.067Z,11.18
2023-05-18T08:52:09.058Z,10.32
2023-05-18T08:54:37.753Z,7.97
2023-05-18T08:57:08.856Z,7.00
2023-05-18T08:59:40.920Z,6.03
2023-05-18T09:02:08.200Z,7.45
2023-05-18T09:04:36.099Z,7.15
2023-05-18T09:07:05.453Z,7.88
2023-05-18T09:09:34.971Z,16.13
2023-05-18T09:12:02.936Z,8.38
2023-05-18T09:14:31.730Z,7.88
2023-05-18T09:16:59.075Z,7.63
2023-05-18T09:19:26.106Z,6.50
2023-05-18T09:21:53.094Z,6.20
2023-05-18T09:24:33.314Z,5.95
2023-05-18T09:27:01.832Z,7.80
2023-05-18T09:29:31.688Z,7.47
2023-05-18T09:32:03.422Z,7.20
2023-05-18T09:34:39.986Z,7.68
2023-05-18T09:37:07.055Z,6.32
2023-05-18T09:39:34.076Z,6.25
2023-05-18T09:42:03.661Z,8.48
2023-05-18T09:44:31.771Z,7.60
2023-05-18T09:46:58.961Z,9.25
2023-05-18T09:49:26.060Z,9.13
2023-05-18T09:51:53.421Z,8.10
2023-05-18T09:54:21.999Z,8.68
2023-05-18T09:57:02.344Z,6.82
2023-05-18T09:59:38.691Z,9.32
2023-05-18T10:02:06.553Z,5.70
2023-05-18T10:04:38.167Z,7.53
2023-05-18T10:07:10.082Z,10.05
2023-05-18T10:09:37.164Z,7.20
2023-05-18T10:12:10.000Z,8.02
2023-05-18T10:14:39.662Z,8.43
2023-05-18T10:17:14.894Z,7.63
2023-05-18T10:19:42.774Z,10.45
2023-05-18T10:22:10.452Z,11.63
2023-05-18T10:24:42.470Z,6.75
2023-05-18T10:27:10.517Z,6.18
2023-05-18T10:29:41.133Z,7.78
2023-05-18T10:32:12.794Z,8.63
2023-05-18T10:34:41.806Z,7.80
2023-05-18T10:37:11.903Z,8.85
2023-05-18T10:39:41.354Z,6.97
2023-05-18T10:42:10.180Z,8.20
2023-05-18T10:44:40.746Z,9.30
2023-05-18T10:47:09.038Z,7.18
2023-05-18T10:49:37.678Z,7.07
2023-05-18T10:52:06.516Z,7.22
2023-05-18T10:54:34.401Z,8.77
2023-05-18T10:57:01.797Z,5.60
2023-05-18T10:59:29.249Z,8.27
2023-05-18T11:01:59.012Z,10.48
2023-05-18T11:04:27.814Z,6.75
2023-05-18T11:06:57.673Z,10.15
2023-05-18T11:09:25.805Z,7.10
2023-05-18T11:11:53.929Z,6.22
2023-05-18T11:14:31.365Z,5.38
2023-05-18T11:17:22.522Z,4.80
2023-05-18T11:20:16.265Z,6.05
2023-05-18T11:22:48.895Z,7.22
2023-05-18T11:25:38.810Z,7.95
2023-05-18T11:28:08.050Z,7.78
2023-05-18T11:30:49.496Z,4.53
2023-05-18T11:33:23.495Z,6.22
2023-05-18T11:36:14.941Z,7.03
2023-05-18T11:38:53.420Z,6.40
2023-05-18T11:41:32.284Z,5.18
2023-05-18T11:44:16.432Z,7.18
2023-05-18T11:46:54.832Z,4.85
2023-05-18T11:49:25.175Z,5.75
2023-05-18T11:52:05.918Z,5.10
2023-05-18T11:54:40.392Z,5.78
2023-05-18T11:57:08.143Z,6.97
2023-05-18T11:59:38.212Z,7.20
2023-05-18T12:02:05.625Z,9.23
2023-05-18T12:04:34.600Z,5.13
2023-05-18T12:07:05.437Z,7.60
2023-05-18T12:09:32.994Z,4.38
2023-05-18T12:12:01.178Z,6.80
2023-05-18T12:14:29.099Z,4.25
2023-05-18T12:16:58.615Z,5.03
2023-05-18T12:19:25.842Z,5.65
2023-05-18T12:21:56.754Z,5.40
2023-05-18T12:24:25.838Z,7.60
2023-05-18T12:26:53.357Z,5.07
2023-05-18T12:29:21.379Z,5.80
2023-05-18T12:31:48.988Z,4.63
2023-05-18T12:34:16.228Z,5.63
2023-05-18T12:36:51.823Z,4.47
2023-05-18T12:39:20.798Z,9.13
2023-05-18T12:41:48.156Z,5.10
2023-05-18T12:44:15.385Z,3.75
2023-05-18T12:46:43.550Z,6.68
2023-05-18T12:49:11.477Z,7.72
2023-05-18T12:51:39.729Z,8.40
2023-05-18T12:54:09.240Z,6.20
2023-05-18T12:56:58.339Z,5.05
2023-05-18T12:59:27.497Z,5.53
2023-05-18T13:01:55.375Z,6.70
2023-05-18T13:04:23.167Z,6.60
2023-05-18T13:06:50.551Z,7.97
2023-05-18T13:09:18.287Z,5.30
2023-05-18T13:12:06.330Z,6.28
2023-05-18T13:14:39.348Z,5.25
2023-05-18T13:17:06.406Z,4.13
2023-05-18T13:19:35.286Z,4.43
2023-05-18T13:22:02.390Z,5.18
2023-05-18T13:24:29.322Z,4.07
2023-05-18T13:26:57.036Z,7.43
2023-05-18T13:29:23.977Z,5.05
2023-05-18T13:32:08.542Z,5.55
2023-05-18T13:34:35.654Z,6.72
2023-05-18T13:37:02.677Z,5.63
2023-05-18T13:39:29.791Z,5.20
2023-05-18T13:41:57.293Z,8.23
2023-05-18T13:44:38.142Z,5.03
2023-05-18T13:47:06.333Z,3.90
2023-05-18T13:49:34.766Z,5.10
2023-05-18T13:52:01.659Z,10.50
2023-05-18T13:54:29.230Z,7.70
2023-05-18T13:56:56.542Z,5.53
2023-05-18T13:59:23.699Z,6.13
2023-05-18T14:01:50.756Z,6.18
2023-05-18T14:04:17.798Z,6.78
2023-05-18T14:06:46.239Z,4.72
2023-05-18T14:09:13.174Z,7.70
2023-05-18T14:11:40.298Z,6.72
2023-05-18T14:14:08.076Z,6.90
2023-05-18T14:16:35.087Z,4.85
2023-05-18T14:19:02.164Z,5.95
2023-05-18T14:21:29.004Z,8.30
2023-05-18T14:23:57.529Z,5.40
2023-05-18T14:26:24.609Z,4.82
2023-05-18T14:28:52.115Z,5.70
2023-05-18T14:31:19.206Z,3.67
2023-05-18T14:33:46.186Z,5.50
2023-05-18T14:36:13.169Z,5.55
2023-05-18T14:38:40.640Z,4.88
2023-05-18T14:41:09.181Z,6.07
2023-05-18T14:43:36.225Z,4.80
2023-05-18T14:48:35.623Z,4.97
2023-05-18T14:51:02.740Z,5.47
2023-05-18T14:53:30.202Z,4.53
2023-05-18T14:55:57.148Z,5.63
2023-05-18T14:58:25.393Z,5.90
2023-05-18T15:00:52.346Z,3.70
2023-05-18T15:03:19.340Z,3.72
2023-05-18T15:05:46.265Z,6.18
2023-05-18T15:08:13.507Z,6.00
2023-05-18T15:10:40.449Z,4.40
2023-05-18T15:13:07.568Z,9.38
2023-05-18T15:15:36.194Z,5.95
2023-05-18T15:18:03.361Z,4.43
2023-05-18T15:20:30.655Z,4.20
2023-05-18T15:22:58.071Z,3.28
2023-05-18T15:25:25.033Z,3.40
2023-05-18T15:27:51.975Z,4.10
2023-05-18T15:30:19.164Z,6.88
2023-05-18T15:32:47.546Z,3.08
2023-05-18T15:35:14.582Z,4.85
2023-05-18T15:37:41.503Z,2.97
2023-05-18T15:40:09.260Z,4.07
2023-05-18T15:42:36.695Z,3.08
2023-05-18T15:45:04.032Z,2.78
2023-05-18T15:47:30.987Z,4.75
2023-05-18T15:49:59.590Z,3.55
2023-05-18T15:52:26.684Z,4.28
2023-05-18T15:54:53.728Z,2.92
2023-05-18T15:57:20.620Z,2.85
2023-05-18T15:59:47.526Z,4.43
2023-05-18T16:02:15.068Z,8.52
2023-05-18T16:04:42.234Z,3.38
2023-05-18T16:07:11.150Z,5.55
2023-05-18T16:09:38.176Z,2.92
2023-05-18T16:12:05.775Z,4.78
2023-05-18T16:14:33.615Z,2.83
2023-05-18T16:17:00.824Z,3.65
2023-05-18T16:19:27.961Z,3.35
2023-05-18T16:21:55.066Z,4.50
2023-05-18T16:24:23.551Z,3.70
2023-05-18T16:26:50.524Z,3.22
2023-05-18T16:29:17.525Z,3.67
2023-05-18T16:31:44.564Z,3.95
2023-05-18T16:34:11.734Z,5.18
2023-05-18T16:36:38.897Z,3.30
2023-05-18T16:39:05.995Z,6.20
2023-05-18T16:41:34.439Z,7.32
2023-05-18T16:44:01.819Z,4.10
2023-05-18T16:46:28.874Z,4.55
2023-05-18T16:48:56.256Z,5.30
2023-05-18T16:51:24.039Z,5.18
2023-05-18T16:53:52.225Z,4.45
2023-05-18T16:56:19.219Z,2.95
2023-05-18T16:58:47.693Z,3.80
2023-05-18T17:01:26.651Z,7.45
2023-05-18T17:03:54.824Z,2.63
2023-05-18T17:06:21.807Z,4.35
2023-05-18T17:08:48.637Z,3.65
2023-05-18T17:11:15.588Z,4.68
2023-05-18T17:13:42.430Z,4.28
2023-05-18T17:16:10.889Z,3.40
2023-05-18T17:18:37.801Z,3.75
2023-05-18T17:21:04.803Z,5.53
2023-05-18T17:23:32.027Z,4.35
2023-05-18T17:26:05.787Z,6.65
2023-05-18T17:28:33.828Z,4.90
2023-05-18T17:31:00.918Z,3.70
2023-05-18T17:33:29.401Z,2.33
2023-05-18T17:35:56.384Z,4.30
2023-05-18T17:38:23.235Z,4.45
2023-05-18T17:40:50.445Z,5.07
2023-05-18T17:43:17.300Z,3.95
2023-05-18T17:45:44.250Z,2.88
2023-05-18T17:48:11.121Z,5.35
2023-05-18T17:50:39.447Z,3.55
2023-05-18T17:53:06.378Z,9.27
2023-05-18T17:55:33.374Z,5.85
2023-05-18T17:58:00.309Z,2.97
2023-05-18T18:00:27.263Z,8.05
2023-05-18T18:02:54.278Z,4.18
2023-05-18T18:05:21.249Z,4.18
2023-05-18T18:07:49.719Z,3.42
2023-05-18T18:10:16.671Z,3.70
2023-05-18T18:12:43.681Z,3.33
2023-05-18T18:15:11.480Z,5.35
2023-05-18T18:17:38.550Z,3.63
2023-05-18T18:20:06.837Z,3.22
2023-05-18T18:22:35.805Z,3.40
2023-05-18T18:25:04.816Z,4.10
2023-05-18T18:27:31.690Z,3.22
2023-05-18T18:29:58.677Z,3.97
2023-05-18T18:32:25.903Z,3.40
2023-05-18T18:34:52.855Z,4.13
2023-05-18T18:37:19.718Z,3.55
2023-05-18T18:39:46.639Z,4.35
2023-05-18T18:42:18.676Z,3.45
2023-05-18T18:44:48.065Z,4.65
2023-05-18T18:47:15.111Z,3.40
2023-05-18T18:49:42.082Z,3.22
2023-05-18T18:52:10.286Z,4.18
2023-05-18T18:54:38.110Z,4.38
2023-05-18T18:57:05.452Z,4.53
2023-05-18T18:59:33.776Z,3.92
2023-05-18T19:02:00.802Z,4.75
2023-05-18T19:04:28.385Z,4.35
2023-05-18T19:06:55.552Z,4.10
2023-05-18T19:09:22.971Z,4.47
2023-05-18T19:11:49.787Z,3.65
2023-05-18T19:14:16.769Z,4.30
2023-05-18T19:17:07.888Z,4.43
2023-05-18T19:19:34.772Z,3.47
2023-05-18T19:22:01.761Z,4.13
2023-05-18T19:24:28.931Z,4.05
2023-05-18T19:26:55.959Z,4.35
2023-05-18T19:29:23.494Z,6.47
2023-05-18T19:31:50.599Z,3.33
2023-05-18T19:34:19.248Z,3.28
2023-05-18T19:36:46.180Z,3.38
2023-05-18T19:39:14.973Z,3.58
2023-05-18T19:41:41.823Z,4.32
2023-05-18T19:44:08.670Z,3.83
2023-05-18T19:46:36.158Z,3.33
2023-05-18T19:49:03.402Z,5.30
2023-05-18T19:51:31.879Z,5.00
2023-05-18T19:53:58.885Z,5.13
2023-05-18T19:56:25.910Z,5.72
2023-05-18T19:58:52.814Z,4.72
2023-05-18T20:01:20.318Z,3.72
2023-05-18T20:03:47.377Z,4.80
2023-05-18T20:06:14.518Z,3.42
2023-05-18T20:08:42.800Z,4.53
2023-05-18T20:11:09.833Z,6.25
2023-05-18T20:13:36.701Z,3.78
2023-05-18T20:16:03.852Z,2.95
2023-05-18T20:18:31.134Z,3.20
2023-05-18T20:20:58.308Z,4.28
2023-05-18T20:23:25.439Z,3.22
2023-05-18T20:25:53.872Z,5.53
2023-05-18T20:28:21.043Z,2.58
2023-05-18T20:30:48.502Z,2.90
2023-05-18T20:33:15.538Z,4.47
2023-05-18T20:35:42.520Z,3.88
2023-05-18T20:38:09.779Z,4.15
2023-05-18T20:40:36.608Z,4.13
2023-05-18T20:43:05.259Z,3.83
2023-05-18T20:45:32.244Z,2.85
2023-05-18T20:47:59.334Z,3.75
2023-05-18T20:50:26.309Z,2.85
2023-05-18T20:52:54.167Z,4.18
2023-05-18T20:55:21.344Z,3.08
2023-05-18T20:57:48.403Z,2.53
2023-05-18T21:00:18.048Z,4.28
2023-05-18T21:02:45.919Z,3.25
2023-05-18T21:05:14.508Z,2.90
2023-05-18T21:07:41.458Z,3.42
2023-05-18T21:10:09.914Z,3.03
2023-05-18T21:12:38.332Z,3.65
2023-05-18T21:15:06.277Z,3.90
2023-05-18T21:17:34.955Z,3.30
2023-05-18T21:20:02.022Z,5.47
2023-05-18T21:22:29.481Z,3.70
2023-05-18T21:24:56.505Z,5.03
2023-05-18T21:27:23.558Z,3.35
2023-05-18T21:29:50.575Z,6.80
2023-05-18T21:32:17.554Z,5.47
2023-05-18T21:34:46.131Z,4.57
2023-05-18T21:37:13.201Z,4.63
2023-05-18T21:39:40.280Z,4.82
2023-05-18T21:42:07.680Z,5.40
2023-05-18T21:44:34.557Z,5.00
2023-05-18T21:47:02.056Z,7.20
2023-05-18T21:49:29.207Z,5.60
2023-05-18T21:51:58.094Z,7.25
2023-05-18T21:54:24.984Z,5.85
2023-05-18T21:56:51.929Z,6.88
2023-05-18T21:59:18.852Z,8.02
2023-05-18T22:01:45.862Z,6.85
2023-05-18T22:04:15.048Z,5.10
2023-05-18T22:06:42.034Z,7.80
2023-05-18T22:09:10.412Z,5.80
2023-05-18T22:11:38.593Z,7.03
2023-05-18T22:14:05.634Z,6.18
2023-05-18T22:16:32.546Z,6.60
2023-05-18T22:18:59.609Z,6.32
2023-05-18T22:21:27.332Z,5.60
2023-05-18T22:23:54.141Z,5.75
2023-05-18T22:26:22.920Z,7.80
2023-05-18T22:28:50.196Z,8.50
2023-05-18T22:31:17.854Z,5.78
2023-05-18T22:33:44.874Z,6.85
2023-05-18T22:36:11.819Z,8.30
2023-05-18T22:38:38.761Z,6.97
2023-05-18T22:41:05.633Z,8.45
2023-05-18T22:43:34.044Z,7.70
2023-05-18T22:46:01.208Z,9.38
2023-05-18T22:48:28.299Z,6.00
2023-05-18T22:50:55.714Z,7.78
2023-05-18T22:53:22.638Z,7.25
2023-05-18T22:55:49.691Z,7.43
2023-05-18T22:58:17.145Z,7.78
2023-05-18T23:00:45.640Z,10.13
2023-05-18T23:03:12.713Z,10.32
2023-05-18T23:05:39.662Z,12.55
2023-05-18T23:08:06.619Z,8.52
2023-05-18T23:10:33.875Z,8.95
2023-05-18T23:13:00.975Z,7.55
2023-05-18T23:15:29.213Z,8.98
2023-05-18T23:17:57.548Z,7.75
2023-05-18T23:20:24.459Z,7.43
2023-05-18T23:22:51.453Z,11.30
2023-05-18T23:25:18.774Z,7.32
2023-05-18T23:27:45.905Z,7.88
2023-05-18T23:30:13.329Z,9.50
2023-05-18T23:32:40.835Z,7.53
2023-05-18T23:35:13.234Z,11.45
2023-05-18T23:37:42.048Z,9.05
2023-05-18T23:40:11.283Z,8.98
2023-05-18T23:42:38.839Z,9.98
2023-05-18T23:45:07.204Z,10.85
2023-05-18T23:47:34.804Z,7.95
2023-05-18T23:50:02.194Z,8.88
2023-05-18T23:52:32.885Z,5.63
2023-05-18T23:55:00.385Z,7.75
2023-05-18T23:57:27.816Z,9.05
2023-05-18T23:59:55.777Z,10.48
